Flight Track Log - Related Links

Times and Time Zones

All times are in EDT time to prevent confusion due to time zone crossing. See the CTL383 flight status page for this flight to view local times or setup timezone preferences in your user account.

Time Position Orientation Groundspeed Altitude Reporting Facility
EDT Latitude Longitude Course Direction KTS MPH feet Rate Location/Type
Fri 12:55:31 AM 39.0833 -94.6333 218° Southwest 92 106 3,200  Level Kansas City TRACON
Fri 12:56:14 AM 39.0678 -94.6422 204° Southwest 98 113 3,200 519 Level Kansas City Center
Fri 12:57:15 AM 39.0378 -94.6539 197° South 111 128 4,100 738 Climbing Kansas City Center
Fri 12:58:16 AM 39.0139 -94.6228 135° Southeast 133 153 4,700 694 Climbing Kansas City Center
Fri 12:59:16 AM 39.0081 -94.5711 98° East 151 174 5,500 744 Climbing Kansas City Center
Fri 01:00:17 AM 39.0019 -94.5111 97° East 153 176 6,200 590 Climbing Kansas City Center
Fri 01:01:18 AM 38.9953 -94.4592 99° East 154 177 6,700 492 Climbing Kansas City Center
Fri 01:02:19 AM 38.9886 -94.4047 99° East 160 184 7,200 248 Climbing Kansas City Center
Fri 01:03:19 AM 38.9800 -94.3328 99° East 181 208 7,200  Level Kansas City Center
Fri 01:04:20 AM 38.9747 -94.2689 96° East 187 215 7,200  Level Kansas City Center
Fri 01:05:21 AM 38.9656 -94.2069 101° East 185 213 7,200  Level Kansas City Center
Fri 01:06:21 AM 38.9506 -94.1353 105° East 186 214 7,200 -50 Level Kansas City Center
Fri 01:07:22 AM 38.9433 -94.0708 98° East 189 217 7,100  Descending Kansas City Center
Fri 01:08:23 AM 38.9350 -94.0100 100° East 182 209 7,200  Climbing Kansas City Center
Fri 01:09:23 AM 38.9306 -93.9361 94° East 186 214 7,100 -50 Descending Kansas City Center
Fri 01:10:24 AM 38.9264 -93.8714 95° East 190 219 7,100  Level Kansas City Center
Fri 01:11:24 AM 38.9253 -93.8072 91° East 188 216 7,100  Level Kansas City Center
Fri 01:12:25 AM 38.9244 -93.7383 91° East 193 222 7,100  Level Kansas City Center
Fri 01:13:26 AM 38.9211 -93.6719 94° East 189 217 7,100 50 Level Kansas City Center
Fri 01:14:26 AM 38.9231 -93.6044 88° East 187 215 7,200 50 Climbing Kansas City Center
Fri 01:15:27 AM 38.9256 -93.5375 87° East 188 216 7,200 -50 Level Kansas City Center
Fri 01:16:27 AM 38.9236 -93.4719 92° East 187 215 7,100 -50 Descending Kansas City Center
Fri 01:17:28 AM 38.9236 -93.4042 90° East 186 214 7,100  Level Kansas City Center
Fri 01:18:29 AM 38.9219 -93.3392 92° East 184 212 7,100 49 Level Kansas City Center
Fri 01:19:30 AM 38.9128 -93.2778 101° East 177 204 7,200 -50 Climbing Kansas City Center
Fri 01:20:30 AM 38.9042 -93.2017 98° East 178 205 7,000 -100 Descending Kansas City Center
Fri 01:21:30 AM 38.8947 -93.1406 101° East 176 203 7,000  Level Kansas City Center
Fri 01:22:31 AM 38.8881 -93.0794 98° East 174 200 7,000  Level Kansas City Center
Fri 01:23:31 AM 38.8819 -93.0186 97° East 172 198 7,000 50 Level Kansas City Center
Fri 01:24:32 AM 38.8753 -92.9569 98° East 173 199 7,100 50 Climbing Kansas City Center
Fri 01:25:32 AM 38.8689 -92.8975 98° East 170 196 7,100  Level Kansas City Center
Fri 01:26:33 AM 38.8653 -92.8347 94° East 171 197 7,100 -50 Level Kansas City Center
Fri 01:27:33 AM 38.8600 -92.7675 96° East 179 206 7,000 -50 Descending Kansas City Center
Fri 01:28:34 AM 38.8522 -92.7031 99° East 184 212 7,000 50 Level Kansas City Center
Fri 01:29:34 AM 38.8458 -92.6369 97° East 184 212 7,100 50 Climbing Kansas City Center
Fri 01:30:35 AM 38.8392 -92.5708 97° East 187 215 7,100  Level Kansas City Center
Fri 01:31:35 AM 38.8333 -92.5064 97° East 184 212 7,100  Level Kansas City Center
Fri 01:32:36 AM 38.8264 -92.4439 98° East 180 207 7,100  Level Kansas City Center
Fri 01:33:36 AM 38.8219 -92.3778 95° East 182 209 7,100 -50 Level Kansas City Center
Fri 01:34:37 AM 38.8172 -92.3103 95° East 188 216 7,000  Descending Kansas City Center
Fri 01:35:37 AM 38.8094 -92.2469 99° East 182 209 7,100 50 Climbing Kansas City Center
Fri 01:36:38 AM 38.8033 -92.1828 97° East 181 208 7,100 -50 Level Kansas City Center
Fri 01:37:38 AM 38.7961 -92.1192 98° East 180 207 7,000  Descending Kansas City Center
Fri 01:38:39 AM 38.7853 -92.0556 102° East 181 208 7,100 50 Climbing Kansas City Center
Fri 01:39:39 AM 38.7775 -91.9922 99° East 180 207 7,100  Level Kansas City Center
Fri 01:40:39 AM 38.7744 -91.9272 93° East 181 208 7,100  Level Kansas City Center
Fri 01:41:40 AM 38.7675 -91.8636 98° East 180 207 7,100  Level Kansas City Center
Fri 01:42:40 AM 38.7606 -91.8003 98° East 179 206 7,100  Level Kansas City Center
Fri 01:43:41 AM 38.7547 -91.7361 97° East 180 207 7,100 -50 Level Kansas City Center
Fri 01:44:41 AM 38.7494 -91.6778 97° East 181 208 7,000 50 Descending Kansas City Center
Fri 01:45:41 AM 38.7436 -91.6156 97° East 179 206 7,200 50 Climbing Kansas City Center
Fri 01:46:42 AM 38.7372 -91.5528 97° East 178 205 7,100 -50 Descending Kansas City Center
Fri 01:47:42 AM 38.7325 -91.4889 95° East 180 207 7,100 -198 Level Kansas City Center
Fri 01:48:43 AM 38.7269 -91.4231 96° East 184 212 6,700 -347 Descending Kansas City Center
Fri 01:49:43 AM 38.7206 -91.3564 97° East 187 215 6,400 -300 Descending Kansas City Center
Fri 01:50:43 AM 38.7131 -91.2900 98° East 189 217 6,100 -400 Descending Kansas City Center
Fri 01:51:43 AM 38.7061 -91.2264 98° East 184 212 5,600 -446 Descending Kansas City Center
Fri 01:52:44 AM 38.6972 -91.1597 100° East 188 216 5,200 -248 Descending Kansas City Center
Fri 01:53:44 AM 38.6897 -91.0983 99° East 179 206 5,100 -50 Descending Kansas City Center
Fri 01:54:44 AM 38.6825 -91.0389 99° East 172 198 5,100  Level Kansas City Center
Fri 01:55:45 AM 38.6750 -90.9803 99° East 169 194 5,100  Level Kansas City Center
Fri 01:56:45 AM 38.6667 -90.9083 98° East 170 196 5,100 -50 Level Kansas City Center
Fri 01:57:45 AM 38.6578 -90.8500 101° East 169 194 5,000 -250 Descending Kansas City Center
Fri 01:58:45 AM 38.6483 -90.7892 101° East 173 199 4,600 -298 Descending Kansas City Center
Fri 01:59:46 AM 38.6383 -90.7281 102° East 176 203 4,400 -248 Descending Kansas City Center
Fri 02:00:46 AM 38.6333 -90.6656 96° East 176 203 4,100 -298 Descending Kansas City Center
Fri 02:01:47 AM 38.6278 -90.6069 97° East 170 196 3,800 -397 Descending Kansas City Center
Fri 02:02:47 AM 38.6211 -90.5494 98° East 166 191 3,300 -400 Descending Kansas City Center
Fri 02:03:47 AM 38.6169 -90.4908 95° East 166 191 3,000 -150 Descending Kansas City Center
Fri 02:04:47 AM 38.6128 -90.4375 96° East 159 183 3,000 -149 Level Kansas City Center
Fri 02:05:48 AM 38.6092 -90.3836 95° East 157 181 2,700 -198 Descending Kansas City Center
Fri 02:06:48 AM 38.6075 -90.3275 92° East 159 183 2,600 -150 Descending Kansas City Center
Fri 02:07:48 AM 38.6094 -90.2733 87° East 157 181 2,400 -446 Descending Kansas City Center
Fri 02:08:49 AM 38.6011 -90.2203 101° East 155 178 1,700 -744 Descending Kansas City Center
Fri 02:09:49 AM 38.5822 -90.1794 121° Southeast 146 168 900 -500 Descending Kansas City Center
Fri 02:10:49 AM 38.5644 -90.1417 121° Southeast 142 163 700 -200 Descending Kansas City Center
Fri 02:12:00 AM 38.5667 -90.1500 90° East  Level FlightAware Approximate
Fri 02:19:00 AM 38.5704 -90.1551 90° East  Level Estimated
Fri 02:20:00 AM 38.5667 -90.1500 90° East  Level FlightAware Approximate

Login

Don't have an account? Register now (free) for customized features, flight alerts, and more!